createdAt,value
2017-10-29T00:02:06.010Z,1.13
2017-10-29T00:04:33.548Z,0.20
2017-10-29T00:07:01.110Z,0.87
2017-10-29T00:09:37.983Z,1.03
2017-10-29T00:12:06.132Z,0.30
2017-10-29T00:14:33.673Z,0.50
2017-10-29T00:17:01.990Z,0.20
2017-10-29T00:19:29.533Z,1.23
2017-10-29T00:21:57.869Z,0.93
2017-10-29T00:24:25.392Z,2.97
2017-10-29T00:26:52.917Z,0.20
2017-10-29T00:29:20.466Z,1.27
2017-10-29T00:31:47.993Z,0.40
2017-10-29T00:34:15.524Z,0.30
2017-10-29T00:36:43.846Z,0.20
2017-10-29T00:39:11.367Z,0.83
2017-10-29T00:41:38.878Z,0.20
2017-10-29T00:44:07.424Z,0.37
2017-10-29T00:46:34.993Z,1.80
2017-10-29T00:49:02.513Z,0.40
2017-10-29T00:51:30.840Z,0.53
2017-10-29T00:53:58.388Z,0.40
2017-10-29T00:56:25.958Z,0.50
2017-10-29T00:58:53.543Z,2.40
2017-10-29T01:01:21.075Z,0.50
2017-10-29T01:03:49.363Z,2.83
2017-10-29T01:06:16.912Z,1.50
2017-10-29T01:08:44.443Z,0.20
2017-10-29T01:11:11.992Z,2.83
2017-10-29T01:13:39.541Z,0.30
2017-10-29T01:16:07.077Z,1.70
2017-10-29T01:18:34.590Z,1.10
2017-10-29T01:21:02.137Z,0.50
2017-10-29T01:23:30.820Z,0.27
2017-10-29T01:25:58.351Z,2.83
2017-10-29T01:28:26.655Z,0.60
2017-10-29T01:30:54.937Z,0.47
2017-10-29T01:33:22.485Z,0.50
2017-10-29T01:35:50.051Z,0.97
2017-10-29T01:38:17.575Z,0.77
2017-10-29T01:40:45.097Z,1.07
2017-10-29T01:43:12.642Z,0.40
2017-10-29T01:45:40.166Z,0.40
2017-10-29T01:48:07.687Z,1.30
2017-10-29T01:50:36.005Z,0.40
2017-10-29T01:53:03.558Z,0.20
2017-10-29T01:55:31.080Z,0.43
2017-10-29T01:57:58.649Z,0.20
2017-10-29T02:00:26.171Z,1.90
2017-10-29T02:02:53.726Z,0.30
2017-10-29T02:05:21.272Z,0.40
2017-10-29T02:07:48.798Z,1.40
2017-10-29T02:10:16.315Z,1.03
2017-10-29T02:12:44.619Z,0.50
2017-10-29T02:15:12.145Z,0.53
2017-10-29T02:17:39.687Z,0.30
2017-10-29T02:20:07.240Z,0.73
2017-10-29T02:22:34.783Z,0.40
2017-10-29T02:25:02.332Z,0.20
2017-10-29T02:27:29.869Z,1.73
2017-10-29T02:29:57.387Z,1.17
2017-10-29T02:32:25.666Z,0.27
2017-10-29T02:34:54.109Z,0.63
2017-10-29T02:37:22.397Z,0.30
2017-10-29T02:39:49.911Z,0.30
2017-10-29T02:42:18.235Z,0.20
2017-10-29T02:44:45.759Z,2.27
2017-10-29T02:47:13.311Z,3.07
2017-10-29T02:49:40.868Z,1.67
2017-10-29T02:52:08.398Z,1.07
2017-10-29T02:54:35.922Z,0.87
2017-10-29T02:57:03.496Z,0.50
2017-10-29T02:59:31.024Z,1.03
2017-10-29T03:01:58.552Z,0.20
2017-10-29T03:04:26.089Z,0.57
2017-10-29T03:06:53.605Z,0.40
2017-10-29T03:09:21.114Z,1.70
2017-10-29T03:11:48.685Z,0.53
2017-10-29T03:14:16.211Z,2.00
2017-10-29T03:16:43.735Z,0.47
2017-10-29T03:19:11.284Z,0.50
2017-10-29T03:21:38.877Z,0.80
2017-10-29T03:24:07.163Z,0.53
2017-10-29T03:26:34.705Z,3.07
2017-10-29T03:29:02.219Z,0.60
2017-10-29T03:31:29.743Z,1.30
2017-10-29T03:33:57.279Z,3.23
2017-10-29T03:36:24.800Z,2.27
2017-10-29T03:38:52.315Z,0.30
2017-10-29T03:41:20.844Z,3.03
2017-10-29T03:43:48.380Z,1.13
2017-10-29T03:46:15.919Z,0.67
2017-10-29T03:48:43.471Z,0.70
2017-10-29T03:51:11.014Z,4.63
2017-10-29T03:53:38.568Z,4.20
2017-10-29T03:56:06.124Z,5.53
2017-10-29T03:58:33.647Z,2.93
2017-10-29T04:01:01.185Z,4.00
2017-10-29T04:03:28.736Z,1.80
2017-10-29T04:05:56.268Z,1.20
2017-10-29T04:08:23.851Z,1.03
2017-10-29T04:10:52.172Z,1.93
2017-10-29T04:13:19.740Z,1.07
2017-10-29T04:15:47.280Z,2.57
2017-10-29T04:18:14.958Z,2.63
2017-10-29T04:20:42.495Z,3.27
2017-10-29T04:23:10.029Z,4.23
2017-10-29T04:25:37.582Z,2.63
2017-10-29T04:28:05.112Z,3.53
2017-10-29T04:30:32.637Z,1.73
2017-10-29T04:33:00.189Z,1.63
2017-10-29T04:35:27.721Z,1.43
2017-10-29T04:37:55.277Z,1.80
2017-10-29T04:40:22.835Z,2.50
2017-10-29T04:42:50.414Z,1.47
2017-10-29T04:45:18.732Z,1.50
2017-10-29T04:47:46.277Z,1.00
2017-10-29T04:50:13.831Z,1.47
2017-10-29T04:52:41.354Z,2.13
2017-10-29T04:55:08.907Z,1.13
2017-10-29T04:57:36.446Z,2.73
2017-10-29T05:00:03.985Z,2.00
2017-10-29T05:02:31.527Z,1.07
2017-10-29T05:04:59.052Z,3.13
2017-10-29T05:07:26.579Z,1.27
2017-10-29T05:09:54.146Z,1.07
2017-10-29T05:12:21.676Z,1.17
2017-10-29T05:14:49.205Z,1.03
2017-10-29T05:17:17.528Z,1.90
2017-10-29T05:19:45.062Z,1.10
2017-10-29T05:22:12.641Z,1.83
2017-10-29T05:24:40.207Z,2.50
2017-10-29T05:27:08.623Z,0.97
2017-10-29T05:29:36.239Z,1.10
2017-10-29T05:32:03.795Z,2.10
2017-10-29T05:34:31.332Z,1.33
2017-10-29T05:36:58.903Z,1.70
2017-10-29T05:39:26.464Z,5.50
2017-10-29T05:41:54.006Z,2.47
2017-10-29T05:44:21.530Z,3.67
2017-10-29T05:46:49.128Z,1.73
2017-10-29T05:49:17.419Z,1.30
2017-10-29T05:51:44.959Z,2.33
2017-10-29T05:54:12.511Z,1.80
2017-10-29T05:56:40.036Z,2.90
2017-10-29T05:59:07.570Z,5.60
2017-10-29T06:01:35.963Z,0.90
2017-10-29T06:04:03.600Z,0.80
2017-10-29T06:06:31.143Z,2.37
2017-10-29T06:08:58.703Z,1.00
2017-10-29T06:11:26.241Z,5.70
2017-10-29T06:13:53.837Z,1.13
2017-10-29T06:16:21.383Z,3.03
2017-10-29T06:18:48.962Z,1.27
2017-10-29T06:21:16.494Z,3.60
2017-10-29T06:23:44.821Z,2.37
2017-10-29T06:26:12.352Z,0.70
2017-10-29T06:28:39.914Z,1.10
2017-10-29T06:31:07.481Z,2.23
2017-10-29T06:33:35.806Z,1.67
2017-10-29T06:36:03.335Z,0.60
2017-10-29T06:38:30.906Z,0.70
2017-10-29T06:40:58.432Z,0.30
2017-10-29T06:43:25.971Z,0.20
2017-10-29T06:45:53.543Z,5.63
2017-10-29T06:48:21.381Z,3.10
2017-10-29T06:50:48.928Z,0.47
2017-10-29T06:53:16.491Z,0.77
2017-10-29T06:55:44.055Z,3.50
2017-10-29T06:58:12.348Z,1.43
2017-10-29T07:00:39.924Z,4.90
2017-10-29T07:03:07.446Z,0.93
2017-10-29T07:05:35.014Z,0.93
2017-10-29T07:08:02.564Z,5.20
2017-10-29T07:10:30.126Z,2.13
2017-10-29T07:12:57.644Z,6.03
2017-10-29T07:15:25.236Z,1.37
2017-10-29T07:17:53.550Z,4.10
2017-10-29T07:20:21.104Z,1.53
2017-10-29T07:22:48.666Z,2.40
2017-10-29T07:25:16.242Z,2.50
2017-10-29T07:27:49.122Z,6.73
2017-10-29T07:30:16.731Z,14.50
2017-10-29T07:32:44.261Z,13.57
2017-10-29T07:35:11.791Z,6.53
2017-10-29T07:37:39.348Z,3.57
2017-10-29T07:40:06.862Z,6.00
2017-10-29T07:42:34.383Z,10.50
2017-10-29T07:45:01.932Z,11.13
2017-10-29T07:47:29.473Z,10.60
2017-10-29T07:49:57.007Z,8.30
2017-10-29T07:52:24.579Z,13.63
2017-10-29T07:54:53.040Z,11.13
2017-10-29T07:57:20.559Z,13.00
2017-10-29T07:59:48.869Z,10.40
2017-10-29T08:02:16.395Z,12.50
2017-10-29T08:04:43.932Z,13.23
2017-10-29T08:07:11.542Z,11.10
2017-10-29T08:09:39.062Z,12.03
2017-10-29T08:12:06.596Z,8.40
2017-10-29T08:14:34.264Z,9.27
2017-10-29T08:17:01.890Z,6.53
2017-10-29T08:19:29.447Z,13.37
2017-10-29T08:21:57.058Z,14.40
2017-10-29T08:24:25.017Z,11.27
2017-10-29T08:26:52.573Z,8.90
2017-10-29T08:29:20.312Z,10.73
2017-10-29T08:31:47.919Z,20.87
2017-10-29T08:34:16.430Z,16.97
2017-10-29T08:36:44.005Z,20.57
2017-10-29T08:39:11.595Z,10.30
2017-10-29T08:41:39.120Z,8.17
2017-10-29T08:44:07.505Z,14.77
2017-10-29T08:46:35.038Z,10.47
2017-10-29T08:49:03.356Z,16.97
2017-10-29T08:51:30.964Z,13.87
2017-10-29T08:53:58.526Z,17.50
2017-10-29T08:56:26.091Z,14.93
2017-10-29T08:58:53.668Z,13.67
2017-10-29T09:01:22.157Z,12.57
2017-10-29T09:03:49.908Z,23.70
2017-10-29T09:06:17.492Z,18.50
2017-10-29T09:08:45.270Z,18.67
2017-10-29T09:11:12.947Z,18.30
2017-10-29T09:13:40.648Z,22.67
2017-10-29T09:16:09.250Z,15.57
2017-10-29T09:18:37.640Z,28.50
2017-10-29T09:21:05.295Z,28.07
2017-10-29T09:23:32.952Z,17.40
2017-10-29T09:26:00.654Z,23.80
2017-10-29T09:28:29.047Z,13.47
2017-10-29T09:30:56.673Z,9.37
2017-10-29T09:33:24.552Z,16.87
2017-10-29T09:35:52.199Z,20.23
2017-10-29T09:38:19.868Z,16.90
2017-10-29T09:40:47.537Z,19.17
2017-10-29T09:43:15.099Z,17.03
2017-10-29T09:45:43.400Z,19.30
2017-10-29T09:48:10.944Z,21.53
2017-10-29T09:50:38.556Z,22.60
2017-10-29T09:53:06.848Z,22.67
2017-10-29T09:55:34.380Z,22.60
2017-10-29T09:58:01.952Z,24.67
2017-10-29T10:00:29.510Z,27.17
2017-10-29T10:02:57.045Z,29.27
2017-10-29T10:05:24.617Z,23.80
2017-10-29T10:07:52.652Z,22.80
2017-10-29T10:10:20.192Z,18.33
2017-10-29T10:12:48.560Z,27.67
2017-10-29T10:15:16.129Z,22.00
2017-10-29T10:17:43.665Z,20.03
2017-10-29T10:20:11.265Z,22.87
2017-10-29T10:22:38.784Z,24.80
2017-10-29T10:25:07.089Z,21.87
2017-10-29T10:27:34.664Z,22.57
2017-10-29T10:30:02.546Z,20.70
2017-10-29T10:32:30.119Z,15.57
2017-10-29T10:34:57.695Z,20.50
2017-10-29T10:37:25.226Z,14.63
2017-10-29T10:39:52.770Z,10.37
2017-10-29T10:42:20.322Z,10.83
2017-10-29T10:44:47.866Z,9.90
2017-10-29T10:47:16.352Z,8.80
2017-10-29T10:49:44.595Z,19.40
2017-10-29T10:52:12.138Z,9.77
2017-10-29T10:54:39.671Z,14.70
2017-10-29T10:57:07.251Z,18.73
2017-10-29T10:59:34.814Z,16.90
2017-10-29T11:02:03.502Z,18.40
2017-10-29T11:04:40.934Z,15.13
2017-10-29T11:07:08.496Z,12.53
2017-10-29T11:09:36.824Z,10.33
2017-10-29T11:12:04.395Z,15.80
2017-10-29T11:14:31.955Z,13.27
2017-10-29T11:16:59.470Z,12.27
2017-10-29T11:19:27.036Z,14.80
2017-10-29T11:21:54.567Z,15.53
2017-10-29T11:24:22.098Z,14.43
2017-10-29T11:26:49.679Z,15.57
2017-10-29T11:29:17.207Z,12.10
2017-10-29T11:31:44.743Z,11.73
2017-10-29T11:34:12.293Z,7.00
2017-10-29T11:36:39.820Z,6.70
2017-10-29T11:39:07.370Z,5.23
2017-10-29T11:41:34.944Z,9.00
2017-10-29T11:44:02.465Z,8.33
2017-10-29T11:46:30.112Z,9.77
2017-10-29T11:48:57.756Z,7.93
2017-10-29T11:51:25.294Z,10.33
2017-10-29T11:53:53.611Z,14.60
2017-10-29T11:56:21.283Z,9.73
2017-10-29T11:58:48.831Z,12.87
2017-10-29T12:01:16.353Z,17.80
2017-10-29T12:03:43.926Z,14.73
2017-10-29T12:06:11.460Z,10.87
2017-10-29T12:08:39.097Z,14.13
2017-10-29T12:11:06.951Z,15.43
2017-10-29T12:13:34.602Z,15.03
2017-10-29T12:16:02.205Z,14.93
2017-10-29T12:18:29.794Z,14.73
2017-10-29T12:20:57.345Z,10.70
2017-10-29T12:23:24.920Z,15.57
2017-10-29T12:25:52.479Z,19.23
2017-10-29T12:28:20.055Z,17.90
2017-10-29T12:30:47.626Z,17.03
2017-10-29T12:33:15.478Z,19.50
2017-10-29T12:35:43.020Z,13.63
2017-10-29T12:38:10.561Z,13.93
2017-10-29T12:40:38.259Z,13.60
2017-10-29T12:43:05.787Z,13.43
2017-10-29T12:45:33.343Z,13.63
2017-10-29T12:48:00.907Z,12.37
2017-10-29T12:50:29.231Z,21.27
2017-10-29T12:52:56.763Z,13.17
2017-10-29T12:55:25.093Z,9.20
2017-10-29T12:57:56.547Z,9.83
2017-10-29T13:00:24.119Z,16.60
2017-10-29T13:02:51.677Z,15.80
2017-10-29T13:05:19.221Z,14.87
2017-10-29T13:07:46.781Z,16.47
2017-10-29T13:10:14.424Z,15.63
2017-10-29T13:12:41.998Z,20.27
2017-10-29T13:15:10.312Z,12.87
2017-10-29T13:17:37.853Z,13.63
2017-10-29T13:20:05.385Z,21.50
2017-10-29T13:22:32.957Z,11.47
2017-10-29T13:25:00.488Z,15.50
2017-10-29T13:27:28.026Z,10.27
2017-10-29T13:29:55.596Z,9.17
2017-10-29T13:32:23.219Z,7.43
2017-10-29T13:34:50.844Z,14.20
2017-10-29T13:37:18.413Z,9.13
2017-10-29T13:39:45.958Z,7.87
2017-10-29T13:42:13.512Z,11.23
2017-10-29T13:44:41.064Z,9.20
2017-10-29T13:47:08.601Z,12.80
2017-10-29T13:49:36.162Z,7.60
2017-10-29T13:52:03.715Z,9.40
2017-10-29T13:54:31.247Z,9.10
2017-10-29T13:56:59.878Z,7.70
2017-10-29T13:59:27.436Z,8.30
2017-10-29T14:01:55.003Z,13.43
2017-10-29T14:04:22.640Z,8.43
2017-10-29T14:06:50.259Z,8.17
2017-10-29T14:09:17.796Z,14.80
2017-10-29T14:11:47.215Z,8.20
2017-10-29T14:14:16.700Z,16.77
2017-10-29T14:16:45.947Z,17.67
2017-10-29T14:19:15.274Z,13.23
2017-10-29T14:21:45.103Z,7.97
2017-10-29T14:26:51.891Z,13.17
2017-10-29T14:29:19.689Z,22.43
2017-10-29T14:31:47.672Z,11.70
2017-10-29T14:34:17.991Z,7.17
2017-10-29T14:36:47.277Z,10.47
2017-10-29T14:39:15.005Z,11.73
2017-10-29T14:41:43.805Z,13.93
2017-10-29T14:44:11.449Z,7.93
2017-10-29T14:46:40.257Z,16.20
2017-10-29T14:49:07.833Z,11.60
2017-10-29T14:51:35.419Z,12.10
2017-10-29T14:54:02.998Z,8.90
2017-10-29T14:56:30.819Z,13.97
2017-10-29T14:58:58.362Z,6.37
2017-10-29T15:01:25.953Z,15.77
2017-10-29T15:03:54.022Z,18.33
2017-10-29T15:06:21.552Z,8.43
2017-10-29T15:08:49.084Z,10.37
2017-10-29T15:11:16.725Z,14.60
2017-10-29T15:13:44.309Z,10.80
2017-10-29T15:16:11.865Z,13.53
2017-10-29T15:18:39.446Z,6.90
2017-10-29T15:21:07.025Z,13.93
2017-10-29T15:23:34.641Z,11.27
2017-10-29T15:26:02.208Z,7.53
2017-10-29T15:28:29.856Z,9.47
2017-10-29T15:30:57.467Z,10.93
2017-10-29T15:33:25.271Z,9.20
2017-10-29T15:35:52.825Z,13.17
2017-10-29T15:38:21.556Z,10.63
2017-10-29T15:40:49.116Z,8.23
2017-10-29T15:43:17.288Z,19.53
2017-10-29T15:45:46.198Z,9.23
2017-10-29T15:48:14.802Z,15.13
2017-10-29T15:50:53.056Z,9.93
2017-10-29T15:53:21.858Z,8.50
2017-10-29T15:55:49.903Z,7.07
2017-10-29T15:58:18.021Z,10.13
2017-10-29T16:00:45.937Z,7.37
2017-10-29T16:03:14.182Z,8.37
2017-10-29T16:05:42.361Z,7.37
2017-10-29T16:08:10.295Z,15.37
2017-10-29T16:10:38.024Z,14.50
2017-10-29T16:13:06.385Z,9.30
2017-10-29T16:15:38.538Z,15.20
2017-10-29T16:18:09.735Z,9.00
2017-10-29T16:20:39.063Z,7.37
2017-10-29T16:23:08.424Z,10.00
2017-10-29T16:25:37.860Z,17.43
2017-10-29T16:28:07.476Z,16.70
2017-10-29T16:30:37.144Z,15.77
2017-10-29T16:33:06.896Z,12.83
2017-10-29T16:35:39.442Z,14.00
2017-10-29T16:38:10.902Z,12.53
2017-10-29T16:40:41.996Z,14.30
2017-10-29T16:43:12.563Z,13.03
2017-10-29T16:45:42.405Z,7.77
2017-10-29T16:48:12.521Z,15.97
2017-10-29T16:50:46.696Z,12.47
2017-10-29T16:53:18.900Z,17.40
2017-10-29T16:55:49.442Z,11.13
2017-10-29T16:58:19.175Z,14.97
2017-10-29T17:00:50.768Z,7.77
2017-10-29T17:03:22.845Z,18.83
2017-10-29T17:05:52.562Z,14.23
2017-10-29T17:08:23.678Z,11.00
2017-10-29T17:10:53.520Z,9.97
2017-10-29T17:13:23.595Z,17.47
2017-10-29T17:15:54.856Z,14.20
2017-10-29T17:18:24.026Z,21.43
2017-10-29T17:20:54.923Z,14.27
2017-10-29T17:23:24.744Z,12.37
2017-10-29T17:25:57.940Z,18.33
2017-10-29T17:28:28.424Z,15.33
2017-10-29T17:30:58.951Z,9.63
2017-10-29T17:33:27.190Z,12.07
2017-10-29T17:35:56.586Z,18.77
2017-10-29T17:38:24.777Z,15.93
2017-10-29T17:40:52.523Z,23.43
2017-10-29T17:43:20.542Z,12.97
2017-10-29T17:45:48.831Z,14.57
2017-10-29T17:48:17.532Z,11.63
2017-10-29T17:50:47.263Z,14.53
2017-10-29T17:53:16.900Z,14.03
2017-10-29T17:55:45.723Z,15.83
2017-10-29T17:58:14.014Z,15.90
2017-10-29T18:00:42.118Z,16.33
2017-10-29T18:03:10.502Z,17.33
2017-10-29T18:05:38.592Z,16.97
2017-10-29T18:08:06.769Z,14.77
2017-10-29T18:10:35.556Z,14.33
2017-10-29T18:13:03.747Z,16.23
2017-10-29T18:15:31.769Z,17.17
2017-10-29T18:18:00.143Z,26.10
2017-10-29T18:20:28.024Z,16.33
2017-10-29T18:22:55.791Z,18.13
2017-10-29T18:25:23.724Z,18.47
2017-10-29T18:27:51.542Z,19.73
2017-10-29T18:30:20.194Z,15.27
2017-10-29T18:32:48.789Z,17.67
2017-10-29T18:35:17.501Z,15.67
2017-10-29T18:37:45.196Z,13.27
2017-10-29T18:40:13.835Z,19.33
2017-10-29T18:42:41.902Z,15.57
2017-10-29T18:45:09.693Z,16.37
2017-10-29T18:47:37.383Z,13.43
2017-10-29T18:50:05.084Z,11.97
2017-10-29T18:52:33.854Z,14.13
2017-10-29T18:55:02.125Z,18.27
2017-10-29T18:57:32.217Z,15.23
2017-10-29T19:00:00.444Z,9.23
2017-10-29T19:02:29.199Z,16.40
2017-10-29T19:04:58.407Z,10.33
2017-10-29T19:07:26.622Z,14.73
2017-10-29T19:09:54.272Z,17.83
2017-10-29T19:12:21.923Z,16.13
2017-10-29T19:14:49.683Z,14.77
2017-10-29T19:17:18.283Z,18.27
2017-10-29T19:19:46.857Z,14.20
2017-10-29T19:22:15.619Z,18.53
2017-10-29T19:24:43.401Z,10.40
2017-10-29T19:27:11.220Z,12.70
2017-10-29T19:29:39.058Z,8.90
2017-10-29T19:32:07.564Z,22.07
2017-10-29T19:34:36.111Z,14.37
2017-10-29T19:37:04.856Z,12.70
2017-10-29T19:39:32.532Z,18.80
2017-10-29T19:42:01.370Z,17.13
2017-10-29T19:44:29.310Z,16.10
2017-10-29T19:46:56.892Z,21.30
2017-10-29T19:49:24.707Z,14.33
2017-10-29T19:51:52.424Z,17.70
2017-10-29T19:54:20.806Z,15.63
2017-10-29T19:56:49.791Z,15.17
2017-10-29T19:59:17.689Z,12.87
2017-10-29T20:01:45.969Z,27.90
2017-10-29T20:04:14.379Z,18.97
2017-10-29T20:06:42.144Z,18.53
2017-10-29T20:09:09.958Z,24.07
2017-10-29T20:11:37.844Z,17.93
2017-10-29T20:14:05.498Z,25.27
2017-10-29T20:16:33.967Z,15.13
2017-10-29T20:19:01.732Z,11.73
2017-10-29T20:21:29.565Z,19.70
2017-10-29T20:23:57.227Z,13.50
2017-10-29T20:26:25.280Z,21.00
2017-10-29T20:28:53.046Z,21.27
2017-10-29T20:31:20.608Z,17.67
2017-10-29T20:33:49.343Z,29.33
2017-10-29T20:36:17.760Z,12.13
2017-10-29T20:38:46.383Z,9.43
2017-10-29T20:41:14.142Z,15.17
2017-10-29T20:43:42.179Z,17.80
2017-10-29T20:46:10.962Z,13.70
2017-10-29T20:48:38.663Z,16.37
2017-10-29T20:51:06.259Z,17.40
2017-10-29T20:53:34.210Z,26.67
2017-10-29T20:56:02.692Z,20.00
2017-10-29T20:58:30.346Z,18.90
2017-10-29T21:00:57.980Z,20.97
2017-10-29T21:03:25.582Z,14.97
2017-10-29T21:05:53.195Z,20.13
2017-10-29T21:08:20.864Z,24.80
2017-10-29T21:10:49.375Z,21.80
2017-10-29T21:13:17.418Z,15.90
2017-10-29T21:15:46.843Z,21.83
2017-10-29T21:18:15.248Z,20.53
2017-10-29T21:20:43.191Z,24.40
2017-10-29T21:23:10.738Z,14.60
2017-10-29T21:25:38.284Z,18.93
2017-10-29T21:28:05.894Z,21.90
2017-10-29T21:30:34.251Z,15.93
2017-10-29T21:33:02.672Z,19.37
2017-10-29T21:35:30.305Z,19.17
2017-10-29T21:37:57.923Z,25.00
2017-10-29T21:40:26.423Z,17.10
2017-10-29T21:42:54.737Z,25.03
2017-10-29T21:45:22.461Z,10.90
2017-10-29T21:47:50.110Z,13.03
2017-10-29T21:50:17.658Z,17.93
2017-10-29T21:52:45.188Z,13.83
2017-10-29T21:55:13.136Z,15.53
2017-10-29T21:57:40.807Z,27.27
2017-10-29T22:00:09.185Z,20.63
2017-10-29T22:02:37.122Z,12.67
2017-10-29T22:05:04.793Z,12.67
2017-10-29T22:07:33.598Z,23.50
2017-10-29T22:10:01.725Z,16.77
2017-10-29T22:12:29.715Z,22.00
2017-10-29T22:14:57.593Z,13.63
2017-10-29T22:17:25.800Z,22.80
2017-10-29T22:19:53.572Z,16.73
2017-10-29T22:22:24.428Z,21.37
2017-10-29T22:24:52.846Z,20.83
2017-10-29T22:27:20.483Z,15.50
2017-10-29T22:29:48.230Z,21.17
2017-10-29T22:32:16.140Z,10.10
2017-10-29T22:34:43.839Z,19.13
2017-10-29T22:37:12.934Z,16.30
2017-10-29T22:39:40.671Z,17.50
2017-10-29T22:42:08.493Z,18.07
2017-10-29T22:44:36.174Z,20.93
2017-10-29T22:47:03.805Z,15.87
2017-10-29T22:49:31.812Z,12.93
2017-10-29T22:51:59.360Z,21.23
2017-10-29T22:54:27.002Z,19.73
2017-10-29T22:56:54.706Z,15.53
2017-10-29T22:59:22.745Z,16.27
2017-10-29T23:01:50.360Z,16.07
2017-10-29T23:04:19.472Z,15.20
2017-10-29T23:06:47.009Z,18.63
2017-10-29T23:09:22.324Z,20.77
2017-10-29T23:11:49.858Z,24.20
2017-10-29T23:14:17.465Z,18.37
2017-10-29T23:16:45.128Z,17.10
2017-10-29T23:19:14.996Z,13.77
2017-10-29T23:21:44.831Z,22.37
2017-10-29T23:24:14.551Z,29.40
2017-10-29T23:26:44.563Z,30.27
2017-10-29T23:29:14.505Z,19.83
2017-10-29T23:31:45.351Z,26.80
2017-10-29T23:34:15.481Z,20.30
2017-10-29T23:36:48.906Z,20.07
2017-10-29T23:39:19.993Z,19.93
2017-10-29T23:41:50.056Z,20.50
2017-10-29T23:44:20.490Z,21.63
2017-10-29T23:46:50.753Z,22.27
2017-10-29T23:49:23.899Z,19.20
2017-10-29T23:51:51.716Z,22.33
2017-10-29T23:54:21.812Z,31.47
2017-10-29T23:56:51.993Z,23.40
2017-10-29T23:59:22.583Z,28.00
